sensor_id;sensor_type;location;lat;lon;timestamp;P1;durP1;ratioP1;P2;durP2;ratioP2
29788;SDS011;64899;42.660;23.268;2023-04-03T00:00:58;3.33;;;2.00;;
29788;SDS011;64899;42.660;23.268;2023-04-03T00:03:23;5.80;;;1.80;;
29788;SDS011;64899;42.660;23.268;2023-04-03T00:05:49;2.38;;;1.88;;
29788;SDS011;64899;42.660;23.268;2023-04-03T00:08:15;2.88;;;2.00;;
29788;SDS011;64899;42.660;23.268;2023-04-03T00:10:41;2.92;;;2.20;;
29788;SDS011;64899;42.660;23.268;2023-04-03T00:13:06;4.65;;;2.30;;
29788;SDS011;64899;42.660;23.268;2023-04-03T00:15:32;3.95;;;2.42;;
29788;SDS011;64899;42.660;23.268;2023-04-03T00:17:58;6.07;;;2.50;;
29788;SDS011;64899;42.660;23.268;2023-04-03T00:20:23;3.58;;;2.58;;
29788;SDS011;64899;42.660;23.268;2023-04-03T00:22:49;3.83;;;2.50;;
29788;SDS011;64899;42.660;23.268;2023-04-03T00:25:15;4.63;;;2.60;;
29788;SDS011;64899;42.660;23.268;2023-04-03T00:27:40;3.50;;;2.92;;
29788;SDS011;64899;42.660;23.268;2023-04-03T00:30:06;3.15;;;2.42;;
29788;SDS011;64899;42.660;23.268;2023-04-03T00:32:34;6.22;;;2.60;;
29788;SDS011;64899;42.660;23.268;2023-04-03T00:35:00;3.15;;;2.33;;
29788;SDS011;64899;42.660;23.268;2023-04-03T00:37:25;4.30;;;2.35;;
29788;SDS011;64899;42.660;23.268;2023-04-03T00:39:50;4.45;;;2.17;;
29788;SDS011;64899;42.660;23.268;2023-04-03T00:42:16;3.83;;;2.63;;
29788;SDS011;64899;42.660;23.268;2023-04-03T00:47:11;5.03;;;2.65;;
29788;SDS011;64899;42.660;23.268;2023-04-03T00:49:37;4.43;;;3.17;;
29788;SDS011;64899;42.660;23.268;2023-04-03T00:52:04;5.20;;;3.85;;
29788;SDS011;64899;42.660;23.268;2023-04-03T00:54:31;4.63;;;4.00;;
29788;SDS011;64899;42.660;23.268;2023-04-03T00:56:57;5.53;;;4.05;;
29788;SDS011;64899;42.660;23.268;2023-04-03T00:59:24;5.25;;;3.67;;
29788;SDS011;64899;42.660;23.268;2023-04-03T01:01:55;5.70;;;3.35;;
29788;SDS011;64899;42.660;23.268;2023-04-03T01:06:53;4.10;;;3.17;;
29788;SDS011;64899;42.660;23.268;2023-04-03T01:09:20;5.47;;;3.75;;
29788;SDS011;64899;42.660;23.268;2023-04-03T01:11:46;6.60;;;3.33;;
29788;SDS011;64899;42.660;23.268;2023-04-03T01:14:12;5.18;;;3.45;;
29788;SDS011;64899;42.660;23.268;2023-04-03T01:16:37;5.35;;;3.42;;
29788;SDS011;64899;42.660;23.268;2023-04-03T01:19:03;5.40;;;3.05;;
29788;SDS011;64899;42.660;23.268;2023-04-03T01:24:32;6.10;;;3.90;;
29788;SDS011;64899;42.660;23.268;2023-04-03T01:27:00;4.28;;;2.92;;
29788;SDS011;64899;42.660;23.268;2023-04-03T01:29:26;7.18;;;3.70;;
29788;SDS011;64899;42.660;23.268;2023-04-03T01:31:56;6.47;;;4.05;;
29788;SDS011;64899;42.660;23.268;2023-04-03T01:34:23;6.95;;;3.60;;
29788;SDS011;64899;42.660;23.268;2023-04-03T01:36:49;3.92;;;3.08;;
29788;SDS011;64899;42.660;23.268;2023-04-03T01:39:15;6.97;;;4.13;;
29788;SDS011;64899;42.660;23.268;2023-04-03T01:41:41;8.48;;;4.05;;
29788;SDS011;64899;42.660;23.268;2023-04-03T01:44:06;4.95;;;3.55;;
29788;SDS011;64899;42.660;23.268;2023-04-03T01:46:32;8.25;;;4.90;;
29788;SDS011;64899;42.660;23.268;2023-04-03T01:48:58;11.52;;;8.93;;
29788;SDS011;64899;42.660;23.268;2023-04-03T01:51:23;9.73;;;7.35;;
29788;SDS011;64899;42.660;23.268;2023-04-03T01:53:48;7.93;;;5.22;;
29788;SDS011;64899;42.660;23.268;2023-04-03T01:56:14;5.95;;;4.38;;
29788;SDS011;64899;42.660;23.268;2023-04-03T01:58:40;5.88;;;3.58;;
29788;SDS011;64899;42.660;23.268;2023-04-03T02:01:05;5.80;;;3.45;;
29788;SDS011;64899;42.660;23.268;2023-04-03T02:03:31;4.22;;;3.08;;
29788;SDS011;64899;42.660;23.268;2023-04-03T02:05:57;4.80;;;3.08;;
29788;SDS011;64899;42.660;23.268;2023-04-03T02:08:22;4.25;;;3.10;;
29788;SDS011;64899;42.660;23.268;2023-04-03T02:10:48;7.32;;;3.88;;
29788;SDS011;64899;42.660;23.268;2023-04-03T02:13:14;8.38;;;3.33;;
29788;SDS011;64899;42.660;23.268;2023-04-03T02:15:39;6.10;;;3.50;;
29788;SDS011;64899;42.660;23.268;2023-04-03T02:18:05;4.97;;;3.22;;
29788;SDS011;64899;42.660;23.268;2023-04-03T02:20:32;5.65;;;3.22;;
29788;SDS011;64899;42.660;23.268;2023-04-03T02:22:58;4.70;;;2.92;;
29788;SDS011;64899;42.660;23.268;2023-04-03T02:25:23;6.13;;;3.78;;
29788;SDS011;64899;42.660;23.268;2023-04-03T02:27:49;7.38;;;3.35;;
29788;SDS011;64899;42.660;23.268;2023-04-03T02:30:14;8.48;;;3.53;;
29788;SDS011;64899;42.660;23.268;2023-04-03T02:32:40;7.40;;;4.13;;
29788;SDS011;64899;42.660;23.268;2023-04-03T02:35:07;8.27;;;4.13;;
29788;SDS011;64899;42.660;23.268;2023-04-03T02:37:33;7.85;;;4.25;;
29788;SDS011;64899;42.660;23.268;2023-04-03T02:39:58;6.85;;;3.63;;
29788;SDS011;64899;42.660;23.268;2023-04-03T02:42:24;8.93;;;4.10;;
29788;SDS011;64899;42.660;23.268;2023-04-03T02:44:49;8.43;;;4.07;;
29788;SDS011;64899;42.660;23.268;2023-04-03T02:47:15;9.43;;;4.07;;
29788;SDS011;64899;42.660;23.268;2023-04-03T02:49:40;8.25;;;4.15;;
29788;SDS011;64899;42.660;23.268;2023-04-03T02:52:06;5.93;;;3.90;;
29788;SDS011;64899;42.660;23.268;2023-04-03T02:54:31;8.00;;;4.13;;
29788;SDS011;64899;42.660;23.268;2023-04-03T02:56:58;7.15;;;3.80;;
29788;SDS011;64899;42.660;23.268;2023-04-03T02:59:24;4.93;;;3.80;;
29788;SDS011;64899;42.660;23.268;2023-04-03T03:01:49;9.68;;;4.28;;
29788;SDS011;64899;42.660;23.268;2023-04-03T03:04:14;7.43;;;3.70;;
29788;SDS011;64899;42.660;23.268;2023-04-03T03:06:40;5.70;;;3.60;;
29788;SDS011;64899;42.660;23.268;2023-04-03T03:09:06;15.70;;;4.45;;
29788;SDS011;64899;42.660;23.268;2023-04-03T03:11:31;5.85;;;3.92;;
29788;SDS011;64899;42.660;23.268;2023-04-03T03:13:57;10.23;;;3.97;;
29788;SDS011;64899;42.660;23.268;2023-04-03T03:16:22;7.07;;;4.65;;
29788;SDS011;64899;42.660;23.268;2023-04-03T03:18:48;6.15;;;4.10;;
29788;SDS011;64899;42.660;23.268;2023-04-03T03:21:13;7.80;;;4.20;;
29788;SDS011;64899;42.660;23.268;2023-04-03T03:23:39;11.73;;;4.43;;
29788;SDS011;64899;42.660;23.268;2023-04-03T03:26:06;8.25;;;4.40;;
29788;SDS011;64899;42.660;23.268;2023-04-03T03:28:33;13.57;;;7.68;;
29788;SDS011;64899;42.660;23.268;2023-04-03T03:31:00;14.25;;;6.88;;
29788;SDS011;64899;42.660;23.268;2023-04-03T03:33:25;10.93;;;5.53;;
29788;SDS011;64899;42.660;23.268;2023-04-03T03:35:51;10.55;;;6.07;;
29788;SDS011;64899;42.660;23.268;2023-04-03T03:38:18;7.55;;;5.40;;
29788;SDS011;64899;42.660;23.268;2023-04-03T03:40:43;10.55;;;5.13;;
29788;SDS011;64899;42.660;23.268;2023-04-03T03:43:09;9.18;;;5.32;;
29788;SDS011;64899;42.660;23.268;2023-04-03T03:45:35;8.00;;;4.28;;
29788;SDS011;64899;42.660;23.268;2023-04-03T03:48:00;14.23;;;4.78;;
29788;SDS011;64899;42.660;23.268;2023-04-03T03:50:26;12.80;;;4.72;;
29788;SDS011;64899;42.660;23.268;2023-04-03T03:52:51;6.20;;;4.30;;
29788;SDS011;64899;42.660;23.268;2023-04-03T03:55:17;6.57;;;4.22;;
29788;SDS011;64899;42.660;23.268;2023-04-03T03:57:42;9.65;;;5.10;;
29788;SDS011;64899;42.660;23.268;2023-04-03T04:00:08;9.95;;;4.65;;
29788;SDS011;64899;42.660;23.268;2023-04-03T04:02:34;7.93;;;4.43;;
29788;SDS011;64899;42.660;23.268;2023-04-03T04:04:59;8.07;;;4.90;;
29788;SDS011;64899;42.660;23.268;2023-04-03T04:07:25;14.25;;;4.93;;
29788;SDS011;64899;42.660;23.268;2023-04-03T04:09:53;9.52;;;4.82;;
29788;SDS011;64899;42.660;23.268;2023-04-03T04:12:18;8.98;;;4.80;;
29788;SDS011;64899;42.660;23.268;2023-04-03T04:14:44;13.23;;;5.22;;
29788;SDS011;64899;42.660;23.268;2023-04-03T04:17:11;12.35;;;4.80;;
29788;SDS011;64899;42.660;23.268;2023-04-03T04:19:37;12.20;;;4.35;;
29788;SDS011;64899;42.660;23.268;2023-04-03T04:22:03;12.20;;;5.90;;
29788;SDS011;64899;42.660;23.268;2023-04-03T04:24:28;13.70;;;5.85;;
29788;SDS011;64899;42.660;23.268;2023-04-03T04:26:53;9.45;;;5.38;;
29788;SDS011;64899;42.660;23.268;2023-04-03T04:29:19;12.88;;;5.75;;
29788;SDS011;64899;42.660;23.268;2023-04-03T04:31:44;12.52;;;5.60;;
29788;SDS011;64899;42.660;23.268;2023-04-03T04:34:10;12.20;;;5.85;;
29788;SDS011;64899;42.660;23.268;2023-04-03T04:36:35;10.80;;;5.72;;
29788;SDS011;64899;42.660;23.268;2023-04-03T04:39:00;14.38;;;6.82;;
29788;SDS011;64899;42.660;23.268;2023-04-03T04:41:26;15.15;;;7.40;;
29788;SDS011;64899;42.660;23.268;2023-04-03T04:43:51;12.27;;;7.10;;
29788;SDS011;64899;42.660;23.268;2023-04-03T04:46:17;19.55;;;6.60;;
29788;SDS011;64899;42.660;23.268;2023-04-03T04:48:43;10.02;;;6.75;;
29788;SDS011;64899;42.660;23.268;2023-04-03T04:51:09;17.98;;;7.68;;
29788;SDS011;64899;42.660;23.268;2023-04-03T04:53:34;15.32;;;7.47;;
29788;SDS011;64899;42.660;23.268;2023-04-03T04:55:59;16.50;;;7.63;;
29788;SDS011;64899;42.660;23.268;2023-04-03T04:58:25;16.88;;;8.18;;
29788;SDS011;64899;42.660;23.268;2023-04-03T05:00:58;13.35;;;8.02;;
29788;SDS011;64899;42.660;23.268;2023-04-03T05:03:24;11.65;;;7.40;;
29788;SDS011;64899;42.660;23.268;2023-04-03T05:05:50;16.58;;;7.60;;
29788;SDS011;64899;42.660;23.268;2023-04-03T05:08:15;11.27;;;7.85;;
29788;SDS011;64899;42.660;23.268;2023-04-03T05:10:40;16.10;;;7.78;;
29788;SDS011;64899;42.660;23.268;2023-04-03T05:13:07;11.38;;;7.40;;
29788;SDS011;64899;42.660;23.268;2023-04-03T05:15:32;15.30;;;7.95;;
29788;SDS011;64899;42.660;23.268;2023-04-03T05:17:58;15.07;;;8.18;;
29788;SDS011;64899;42.660;23.268;2023-04-03T05:20:24;17.80;;;8.95;;
29788;SDS011;64899;42.660;23.268;2023-04-03T05:22:50;16.85;;;9.88;;
29788;SDS011;64899;42.660;23.268;2023-04-03T05:25:15;18.45;;;9.27;;
29788;SDS011;64899;42.660;23.268;2023-04-03T05:27:41;20.42;;;10.35;;
29788;SDS011;64899;42.660;23.268;2023-04-03T05:30:06;22.42;;;9.35;;
29788;SDS011;64899;42.660;23.268;2023-04-03T05:32:32;20.33;;;9.10;;
29788;SDS011;64899;42.660;23.268;2023-04-03T05:34:58;19.17;;;9.00;;
29788;SDS011;64899;42.660;23.268;2023-04-03T05:37:23;14.50;;;8.15;;
29788;SDS011;64899;42.660;23.268;2023-04-03T05:39:49;14.30;;;7.68;;
29788;SDS011;64899;42.660;23.268;2023-04-03T05:42:14;16.38;;;7.47;;
29788;SDS011;64899;42.660;23.268;2023-04-03T05:44:40;22.70;;;8.02;;
29788;SDS011;64899;42.660;23.268;2023-04-03T05:47:06;15.88;;;7.38;;
29788;SDS011;64899;42.660;23.268;2023-04-03T05:49:32;12.88;;;7.85;;
29788;SDS011;64899;42.660;23.268;2023-04-03T05:51:57;15.95;;;8.18;;
29788;SDS011;64899;42.660;23.268;2023-04-03T05:54:24;16.63;;;8.55;;
29788;SDS011;64899;42.660;23.268;2023-04-03T05:56:50;19.02;;;8.73;;
29788;SDS011;64899;42.660;23.268;2023-04-03T05:59:16;13.30;;;8.40;;
29788;SDS011;64899;42.660;23.268;2023-04-03T06:01:42;21.27;;;9.13;;
29788;SDS011;64899;42.660;23.268;2023-04-03T06:04:08;21.75;;;10.57;;
29788;SDS011;64899;42.660;23.268;2023-04-03T06:06:49;16.00;;;9.23;;
29788;SDS011;64899;42.660;23.268;2023-04-03T06:09:17;18.58;;;8.65;;
29788;SDS011;64899;42.660;23.268;2023-04-03T06:11:43;14.95;;;9.60;;
29788;SDS011;64899;42.660;23.268;2023-04-03T06:14:09;14.82;;;9.35;;
29788;SDS011;64899;42.660;23.268;2023-04-03T06:16:35;18.52;;;10.38;;
29788;SDS011;64899;42.660;23.268;2023-04-03T06:19:00;16.33;;;10.00;;
29788;SDS011;64899;42.660;23.268;2023-04-03T06:21:26;18.25;;;11.48;;
29788;SDS011;64899;42.660;23.268;2023-04-03T06:23:51;18.58;;;10.98;;
29788;SDS011;64899;42.660;23.268;2023-04-03T06:26:17;18.25;;;11.45;;
29788;SDS011;64899;42.660;23.268;2023-04-03T06:28:42;20.27;;;11.15;;
29788;SDS011;64899;42.660;23.268;2023-04-03T06:31:08;21.30;;;12.60;;
29788;SDS011;64899;42.660;23.268;2023-04-03T06:33:33;22.17;;;13.20;;
29788;SDS011;64899;42.660;23.268;2023-04-03T06:36:00;18.45;;;11.48;;
29788;SDS011;64899;42.660;23.268;2023-04-03T06:38:28;18.45;;;11.55;;
29788;SDS011;64899;42.660;23.268;2023-04-03T06:40:53;19.50;;;10.65;;
29788;SDS011;64899;42.660;23.268;2023-04-03T06:43:19;19.98;;;8.48;;
29788;SDS011;64899;42.660;23.268;2023-04-03T06:45:45;12.27;;;7.22;;
29788;SDS011;64899;42.660;23.268;2023-04-03T06:48:10;11.73;;;6.45;;
29788;SDS011;64899;42.660;23.268;2023-04-03T06:50:36;12.35;;;6.70;;
29788;SDS011;64899;42.660;23.268;2023-04-03T06:53:01;11.75;;;8.43;;
29788;SDS011;64899;42.660;23.268;2023-04-03T06:55:27;16.38;;;11.18;;
29788;SDS011;64899;42.660;23.268;2023-04-03T06:57:52;19.60;;;11.20;;
29788;SDS011;64899;42.660;23.268;2023-04-03T07:00:18;15.35;;;8.73;;
29788;SDS011;64899;42.660;23.268;2023-04-03T07:02:44;16.80;;;8.90;;
29788;SDS011;64899;42.660;23.268;2023-04-03T07:05:10;12.23;;;7.05;;
29788;SDS011;64899;42.660;23.268;2023-04-03T07:07:36;11.60;;;5.55;;
29788;SDS011;64899;42.660;23.268;2023-04-03T07:10:02;8.70;;;5.78;;
29788;SDS011;64899;42.660;23.268;2023-04-03T07:12:28;12.48;;;6.03;;
29788;SDS011;64899;42.660;23.268;2023-04-03T07:14:54;11.85;;;6.90;;
29788;SDS011;64899;42.660;23.268;2023-04-03T07:17:19;8.90;;;6.45;;
29788;SDS011;64899;42.660;23.268;2023-04-03T07:19:45;11.60;;;5.63;;
29788;SDS011;64899;42.660;23.268;2023-04-03T07:22:10;11.07;;;5.97;;
29788;SDS011;64899;42.660;23.268;2023-04-03T07:24:37;12.02;;;6.03;;
29788;SDS011;64899;42.660;23.268;2023-04-03T07:27:02;10.75;;;5.63;;
29788;SDS011;64899;42.660;23.268;2023-04-03T07:29:28;10.40;;;5.53;;
29788;SDS011;64899;42.660;23.268;2023-04-03T07:31:53;11.93;;;5.72;;
29788;SDS011;64899;42.660;23.268;2023-04-03T07:34:20;13.77;;;5.28;;
29788;SDS011;64899;42.660;23.268;2023-04-03T07:36:45;8.75;;;5.10;;
29788;SDS011;64899;42.660;23.268;2023-04-03T07:39:11;10.07;;;4.35;;
29788;SDS011;64899;42.660;23.268;2023-04-03T07:41:36;9.38;;;4.75;;
29788;SDS011;64899;42.660;23.268;2023-04-03T07:44:02;10.57;;;4.20;;
29788;SDS011;64899;42.660;23.268;2023-04-03T07:46:29;8.80;;;4.47;;
29788;SDS011;64899;42.660;23.268;2023-04-03T07:48:55;8.13;;;4.20;;
29788;SDS011;64899;42.660;23.268;2023-04-03T07:51:20;7.28;;;4.05;;
29788;SDS011;64899;42.660;23.268;2023-04-03T07:53:45;8.27;;;3.38;;
29788;SDS011;64899;42.660;23.268;2023-04-03T07:56:11;5.53;;;3.55;;
29788;SDS011;64899;42.660;23.268;2023-04-03T07:58:36;5.88;;;3.97;;
29788;SDS011;64899;42.660;23.268;2023-04-03T08:01:02;9.60;;;4.18;;
29788;SDS011;64899;42.660;23.268;2023-04-03T08:03:28;6.90;;;3.75;;
29788;SDS011;64899;42.660;23.268;2023-04-03T08:05:53;6.40;;;3.60;;
29788;SDS011;64899;42.660;23.268;2023-04-03T08:08:20;5.45;;;4.03;;
29788;SDS011;64899;42.660;23.268;2023-04-03T08:10:53;7.57;;;3.38;;
29788;SDS011;64899;42.660;23.268;2023-04-03T08:13:19;6.78;;;3.83;;
29788;SDS011;64899;42.660;23.268;2023-04-03T08:15:44;8.55;;;3.90;;
29788;SDS011;64899;42.660;23.268;2023-04-03T08:18:10;5.38;;;3.83;;
29788;SDS011;64899;42.660;23.268;2023-04-03T08:20:35;7.63;;;4.30;;
29788;SDS011;64899;42.660;23.268;2023-04-03T08:23:01;6.78;;;3.85;;
29788;SDS011;64899;42.660;23.268;2023-04-03T08:25:26;10.63;;;4.60;;
29788;SDS011;64899;42.660;23.268;2023-04-03T08:27:52;7.55;;;4.25;;
29788;SDS011;64899;42.660;23.268;2023-04-03T08:30:17;7.15;;;4.22;;
29788;SDS011;64899;42.660;23.268;2023-04-03T08:32:43;8.43;;;4.53;;
29788;SDS011;64899;42.660;23.268;2023-04-03T08:35:09;10.25;;;5.05;;
29788;SDS011;64899;42.660;23.268;2023-04-03T08:37:35;11.48;;;5.50;;
29788;SDS011;64899;42.660;23.268;2023-04-03T08:40:02;11.80;;;6.10;;
29788;SDS011;64899;42.660;23.268;2023-04-03T08:45:15;15.23;;;6.82;;
29788;SDS011;64899;42.660;23.268;2023-04-03T08:50:39;13.82;;;7.70;;
29788;SDS011;64899;42.660;23.268;2023-04-03T08:53:06;14.90;;;7.95;;
29788;SDS011;64899;42.660;23.268;2023-04-03T08:55:40;14.93;;;9.10;;
29788;SDS011;64899;42.660;23.268;2023-04-03T08:58:12;15.43;;;9.27;;
29788;SDS011;64899;42.660;23.268;2023-04-03T09:03:15;17.60;;;10.10;;
29788;SDS011;64899;42.660;23.268;2023-04-03T09:05:45;21.25;;;11.02;;
29788;SDS011;64899;42.660;23.268;2023-04-03T09:08:24;24.08;;;12.63;;
29788;SDS011;64899;42.660;23.268;2023-04-03T09:10:52;28.65;;;12.82;;
29788;SDS011;64899;42.660;23.268;2023-04-03T09:15:53;25.10;;;13.07;;
29788;SDS011;64899;42.660;23.268;2023-04-03T09:18:20;18.17;;;12.25;;
29788;SDS011;64899;42.660;23.268;2023-04-03T09:26:03;20.63;;;10.02;;
29788;SDS011;64899;42.660;23.268;2023-04-03T09:28:32;18.80;;;9.98;;
29788;SDS011;64899;42.660;23.268;2023-04-03T09:31:05;18.92;;;9.88;;
29788;SDS011;64899;42.660;23.268;2023-04-03T09:33:41;19.55;;;10.55;;
29788;SDS011;64899;42.660;23.268;2023-04-03T09:36:07;16.25;;;9.27;;
29788;SDS011;64899;42.660;23.268;2023-04-03T09:38:32;15.73;;;7.50;;
29788;SDS011;64899;42.660;23.268;2023-04-03T09:43:30;10.00;;;5.65;;
29788;SDS011;64899;42.660;23.268;2023-04-03T09:48:58;13.45;;;3.40;;
29788;SDS011;64899;42.660;23.268;2023-04-03T09:51:26;4.45;;;2.90;;
29788;SDS011;64899;42.660;23.268;2023-04-03T09:53:55;6.07;;;2.50;;
29788;SDS011;64899;42.660;23.268;2023-04-03T09:56:22;2.97;;;1.75;;
29788;SDS011;64899;42.660;23.268;2023-04-03T10:01:30;5.20;;;2.70;;
29788;SDS011;64899;42.660;23.268;2023-04-03T10:04:05;7.68;;;3.13;;
29788;SDS011;64899;42.660;23.268;2023-04-03T10:06:32;4.93;;;2.65;;
29788;SDS011;64899;42.660;23.268;2023-04-03T10:09:04;3.45;;;2.30;;
29788;SDS011;64899;42.660;23.268;2023-04-03T10:11:35;3.40;;;2.60;;
29788;SDS011;64899;42.660;23.268;2023-04-03T10:14:01;6.47;;;2.55;;
29788;SDS011;64899;42.660;23.268;2023-04-03T10:16:34;4.65;;;2.17;;
29788;SDS011;64899;42.660;23.268;2023-04-03T10:24:17;5.43;;;2.15;;
29788;SDS011;64899;42.660;23.268;2023-04-03T10:26:52;9.38;;;2.50;;
29788;SDS011;64899;42.660;23.268;2023-04-03T10:29:32;6.63;;;2.13;;
29788;SDS011;64899;42.660;23.268;2023-04-03T10:32:11;5.63;;;2.17;;
29788;SDS011;64899;42.660;23.268;2023-04-03T10:34:46;9.65;;;2.85;;
29788;SDS011;64899;42.660;23.268;2023-04-03T10:37:29;6.03;;;2.70;;
29788;SDS011;64899;42.660;23.268;2023-04-03T10:40:04;8.15;;;3.40;;
29788;SDS011;64899;42.660;23.268;2023-04-03T10:45:26;5.20;;;2.75;;
29788;SDS011;64899;42.660;23.268;2023-04-03T10:53:18;5.45;;;2.58;;
29788;SDS011;64899;42.660;23.268;2023-04-03T10:58:46;10.23;;;3.13;;
29788;SDS011;64899;42.660;23.268;2023-04-03T11:01:16;7.57;;;2.67;;
29788;SDS011;64899;42.660;23.268;2023-04-03T11:03:46;8.07;;;2.55;;
29788;SDS011;64899;42.660;23.268;2023-04-03T11:06:14;4.18;;;1.95;;
29788;SDS011;64899;42.660;23.268;2023-04-03T11:11:26;5.10;;;2.08;;
29788;SDS011;64899;42.660;23.268;2023-04-03T11:13:56;4.03;;;2.15;;
29788;SDS011;64899;42.660;23.268;2023-04-03T11:16:26;4.78;;;2.20;;
29788;SDS011;64899;42.660;23.268;2023-04-03T11:18:59;8.52;;;2.40;;
29788;SDS011;64899;42.660;23.268;2023-04-03T11:24:16;10.70;;;2.90;;
29788;SDS011;64899;42.660;23.268;2023-04-03T11:26:47;5.85;;;3.20;;
29788;SDS011;64899;42.660;23.268;2023-04-03T11:29:15;4.85;;;3.38;;
29788;SDS011;64899;42.660;23.268;2023-04-03T11:37:50;8.32;;;3.53;;
29788;SDS011;64899;42.660;23.268;2023-04-03T11:40:02;5.28;;;3.40;;
29788;SDS011;64899;42.660;23.268;2023-04-03T11:42:40;10.77;;;4.35;;
29788;SDS011;64899;42.660;23.268;2023-04-03T11:50:58;8.88;;;3.40;;
29788;SDS011;64899;42.660;23.268;2023-04-03T11:56:30;6.75;;;3.85;;
29788;SDS011;64899;42.660;23.268;2023-04-03T12:01:46;6.80;;;3.60;;
29788;SDS011;64899;42.660;23.268;2023-04-03T12:04:13;7.35;;;4.00;;
29788;SDS011;64899;42.660;23.268;2023-04-03T12:11:51;9.82;;;4.57;;
29788;SDS011;64899;42.660;23.268;2023-04-03T12:14:16;6.65;;;4.20;;
29788;SDS011;64899;42.660;23.268;2023-04-03T12:16:45;4.68;;;3.60;;
29788;SDS011;64899;42.660;23.268;2023-04-03T12:31:56;5.13;;;3.25;;
29788;SDS011;64899;42.660;23.268;2023-04-03T12:40:17;7.30;;;3.92;;
29788;SDS011;64899;42.660;23.268;2023-04-03T12:42:59;5.10;;;3.80;;
29788;SDS011;64899;42.660;23.268;2023-04-03T12:45:29;6.97;;;4.40;;
29788;SDS011;64899;42.660;23.268;2023-04-03T12:48:13;6.30;;;3.88;;
29788;SDS011;64899;42.660;23.268;2023-04-03T12:50:40;5.70;;;4.25;;
29788;SDS011;64899;42.660;23.268;2023-04-03T12:53:10;6.30;;;4.28;;
29788;SDS011;64899;42.660;23.268;2023-04-03T12:55:37;9.95;;;4.45;;
29788;SDS011;64899;42.660;23.268;2023-04-03T12:58:13;7.47;;;4.80;;
29788;SDS011;64899;42.660;23.268;2023-04-03T13:03:27;7.82;;;4.60;;
29788;SDS011;64899;42.660;23.268;2023-04-03T13:05:57;9.43;;;5.18;;
29788;SDS011;64899;42.660;23.268;2023-04-03T13:08:25;8.32;;;5.05;;
29788;SDS011;64899;42.660;23.268;2023-04-03T13:10:59;7.10;;;5.50;;
29788;SDS011;64899;42.660;23.268;2023-04-03T13:13:27;9.95;;;4.95;;
29788;SDS011;64899;42.660;23.268;2023-04-03T13:15:52;6.82;;;5.03;;
29788;SDS011;64899;42.660;23.268;2023-04-03T13:18:23;8.48;;;5.20;;
29788;SDS011;64899;42.660;23.268;2023-04-03T13:23:31;9.98;;;5.70;;
29788;SDS011;64899;42.660;23.268;2023-04-03T13:26:00;6.07;;;4.85;;
29788;SDS011;64899;42.660;23.268;2023-04-03T13:28:28;7.82;;;5.70;;
29788;SDS011;64899;42.660;23.268;2023-04-03T13:33:39;11.90;;;5.35;;
29788;SDS011;64899;42.660;23.268;2023-04-03T13:36:17;5.82;;;4.93;;
29788;SDS011;64899;42.660;23.268;2023-04-03T13:38:45;8.88;;;5.32;;
29788;SDS011;64899;42.660;23.268;2023-04-03T13:43:50;9.48;;;6.00;;
29788;SDS011;64899;42.660;23.268;2023-04-03T13:48:46;10.07;;;5.63;;
29788;SDS011;64899;42.660;23.268;2023-04-03T13:53:45;7.10;;;5.57;;
29788;SDS011;64899;42.660;23.268;2023-04-03T13:56:24;8.18;;;5.65;;
29788;SDS011;64899;42.660;23.268;2023-04-03T13:59:37;7.97;;;5.65;;
29788;SDS011;64899;42.660;23.268;2023-04-03T14:04:11;7.38;;;6.03;;
29788;SDS011;64899;42.660;23.268;2023-04-03T14:06:48;7.45;;;5.90;;
29788;SDS011;64899;42.660;23.268;2023-04-03T14:09:14;10.95;;;6.53;;
29788;SDS011;64899;42.660;23.268;2023-04-03T14:11:41;10.35;;;6.80;;
29788;SDS011;64899;42.660;23.268;2023-04-03T14:14:17;7.75;;;5.00;;
29788;SDS011;64899;42.660;23.268;2023-04-03T14:16:45;5.57;;;4.45;;
29788;SDS011;64899;42.660;23.268;2023-04-03T14:19:24;7.93;;;4.75;;
29788;SDS011;64899;42.660;23.268;2023-04-03T14:21:50;5.88;;;4.05;;
29788;SDS011;64899;42.660;23.268;2023-04-03T14:24:17;4.93;;;4.05;;
29788;SDS011;64899;42.660;23.268;2023-04-03T14:26:44;4.78;;;3.78;;
29788;SDS011;64899;42.660;23.268;2023-04-03T14:29:10;4.90;;;3.60;;
29788;SDS011;64899;42.660;23.268;2023-04-03T14:31:37;7.50;;;4.20;;
29788;SDS011;64899;42.660;23.268;2023-04-03T14:34:02;5.15;;;3.58;;
29788;SDS011;64899;42.660;23.268;2023-04-03T14:36:28;7.07;;;4.07;;
29788;SDS011;64899;42.660;23.268;2023-04-03T14:38:55;5.13;;;3.63;;
29788;SDS011;64899;42.660;23.268;2023-04-03T14:41:22;6.60;;;4.43;;
29788;SDS011;64899;42.660;23.268;2023-04-03T14:43:49;9.52;;;4.45;;
29788;SDS011;64899;42.660;23.268;2023-04-03T14:46:16;6.20;;;4.05;;
29788;SDS011;64899;42.660;23.268;2023-04-03T14:48:44;6.40;;;3.70;;
29788;SDS011;64899;42.660;23.268;2023-04-03T14:51:13;5.60;;;3.88;;
29788;SDS011;64899;42.660;23.268;2023-04-03T14:53:39;4.35;;;3.40;;
29788;SDS011;64899;42.660;23.268;2023-04-03T14:56:16;5.07;;;4.28;;
29788;SDS011;64899;42.660;23.268;2023-04-03T14:58:43;5.47;;;3.95;;
29788;SDS011;64899;42.660;23.268;2023-04-03T15:01:10;6.43;;;4.18;;
29788;SDS011;64899;42.660;23.268;2023-04-03T15:03:36;4.68;;;3.70;;
29788;SDS011;64899;42.660;23.268;2023-04-03T15:06:02;4.90;;;3.33;;
29788;SDS011;64899;42.660;23.268;2023-04-03T15:08:28;4.90;;;3.20;;
29788;SDS011;64899;42.660;23.268;2023-04-03T15:10:57;4.90;;;3.65;;
29788;SDS011;64899;42.660;23.268;2023-04-03T15:13:23;6.45;;;3.72;;
29788;SDS011;64899;42.660;23.268;2023-04-03T15:15:49;5.18;;;3.28;;
29788;SDS011;64899;42.660;23.268;2023-04-03T15:18:17;7.78;;;3.70;;
29788;SDS011;64899;42.660;23.268;2023-04-03T15:20:44;4.15;;;3.33;;
29788;SDS011;64899;42.660;23.268;2023-04-03T15:23:11;5.40;;;3.53;;
29788;SDS011;64899;42.660;23.268;2023-04-03T15:25:37;7.00;;;3.65;;
29788;SDS011;64899;42.660;23.268;2023-04-03T15:28:03;5.38;;;4.38;;
29788;SDS011;64899;42.660;23.268;2023-04-03T15:30:28;4.50;;;3.60;;
29788;SDS011;64899;42.660;23.268;2023-04-03T15:32:54;6.60;;;4.20;;
29788;SDS011;64899;42.660;23.268;2023-04-03T15:35:19;5.03;;;4.20;;
29788;SDS011;64899;42.660;23.268;2023-04-03T15:37:45;4.95;;;4.18;;
29788;SDS011;64899;42.660;23.268;2023-04-03T15:40:10;5.32;;;3.85;;
29788;SDS011;64899;42.660;23.268;2023-04-03T15:42:36;5.53;;;3.95;;
29788;SDS011;64899;42.660;23.268;2023-04-03T15:45:01;7.60;;;4.65;;
29788;SDS011;64899;42.660;23.268;2023-04-03T15:47:27;5.22;;;4.47;;
29788;SDS011;64899;42.660;23.268;2023-04-03T15:49:53;7.57;;;6.00;;
29788;SDS011;64899;42.660;23.268;2023-04-03T15:52:18;7.82;;;6.15;;
29788;SDS011;64899;42.660;23.268;2023-04-03T15:54:44;9.77;;;5.25;;
29788;SDS011;64899;42.660;23.268;2023-04-03T15:57:09;7.00;;;5.47;;
29788;SDS011;64899;42.660;23.268;2023-04-03T15:59:35;8.77;;;6.00;;
29788;SDS011;64899;42.660;23.268;2023-04-03T16:02:00;8.75;;;5.82;;
29788;SDS011;64899;42.660;23.268;2023-04-03T16:04:28;7.25;;;5.72;;
29788;SDS011;64899;42.660;23.268;2023-04-03T16:06:54;7.05;;;5.50;;
29788;SDS011;64899;42.660;23.268;2023-04-03T16:09:19;9.48;;;4.63;;
29788;SDS011;64899;42.660;23.268;2023-04-03T16:11:45;7.00;;;4.88;;
29788;SDS011;64899;42.660;23.268;2023-04-03T16:14:10;7.03;;;5.55;;
29788;SDS011;64899;42.660;23.268;2023-04-03T16:16:36;9.18;;;5.25;;
29788;SDS011;64899;42.660;23.268;2023-04-03T16:19:02;6.20;;;4.97;;
29788;SDS011;64899;42.660;23.268;2023-04-03T16:21:28;8.38;;;5.28;;